Estación Meteorológica Peña el Pijo (Robertgarden) [ 02/03/23 02:50:03 CET ]

Fecha Hora Presion(HPa) Temp (°C) Humedad % Rocio (°C) Viento ( m/s) Direccion Lluvia 1Hora(mm) Lluvia 24H(mm) LLuvia Total(mm)
2012-Apr-23 01:01:16 1007.700 8.3 68 2.7         158.50
2012-Apr-23 02:01:16 1007.600 7.1 71 2.2         158.50
2012-Apr-23 03:03:11 1007.500 6.1 74 1.8         158.50
2012-Apr-23 04:01:14 1007.200 6.4 76 2.5         158.50
2012-Apr-23 05:01:16 1007.000 7.2 76 3.2         158.50
2012-Apr-23 06:01:17 1006.700 7.1 75 3.0         158.50
2012-Apr-23 07:01:14 1006.800 6.1 78 2.5         158.50
2012-Apr-23 08:01:17 1007.000 7.4 71 2.5         158.50
2012-Apr-23 09:01:13 1007.200 9.9 62 2.9         158.50
2012-Apr-23 10:01:14 1006.900 12.5 51 2.6         158.50
2012-Apr-23 11:01:12 1006.900 15.9 39 1.9         158.50
2012-Apr-23 12:01:16 1007.200 18.4 32 1.4 1.1 SSE     158.50
2012-Apr-23 13:01:17 1007.100 20.1 29 1.4 1.5 ESE     158.50
2012-Apr-23 14:01:16 1006.700 20.3 27 0.5         158.50
2012-Apr-23 15:01:13 1006.800 20.9 25 -0.1         158.50
2012-Apr-23 16:01:16 1006.500 21.9 24 0.2 1.0 S     158.50
2012-Apr-23 17:01:18 1006.000 20.1 29 1.4 3.1 WNW     158.50
2012-Apr-23 18:01:19 1005.900 20.2 27 0.4 1.5 WNW     158.50
2012-Apr-23 19:01:16 1005.900 18.9 31 1.4 2.7 SE     158.50
2012-Apr-23 20:01:14 1005.800 14.9 41 1.7 0.4 NW     158.50
2012-Apr-23 21:01:16 1005.700 13.6 48 2.8 1.4 ENE     158.50
2012-Apr-23 22:01:13 1005.300 12.9 52 3.2 0.6 S     158.50
2012-Apr-23 23:01:13 1005.600 12.7 54 3.6 0.5 SSE     158.50

Temperatura Máxima:21°    Temperatura Mínima:
Presión Máxima:1007.700 Hpa    Presión Mínima:1005.300 Hpa


Volver